createdAt,value
2019-02-18T00:00:47.322Z,202.53
2019-02-18T00:01:20.426Z,170.43
2019-02-18T00:01:53.205Z,177.97
2019-02-18T00:02:26.000Z,185.57
2019-02-18T00:02:57.319Z,177.97
2019-02-18T00:03:28.600Z,174.70
2019-02-18T00:04:00.020Z,176.93
2019-02-18T00:04:31.240Z,168.30
2019-02-18T00:05:02.932Z,171.67
2019-02-18T00:05:34.268Z,172.53
2019-02-18T00:06:05.639Z,180.23
2019-02-18T00:06:37.037Z,176.77
2019-02-18T00:07:14.388Z,166.97
2019-02-18T00:07:41.874Z,162.33
2019-02-18T00:08:13.310Z,180.00
2019-02-18T00:08:44.614Z,180.43
2019-02-18T00:09:15.950Z,182.73
2019-02-18T00:09:47.183Z,187.13
2019-02-18T00:10:18.561Z,183.00
2019-02-18T00:10:49.933Z,179.77
2019-02-18T00:11:21.235Z,186.70
2019-02-18T00:11:52.507Z,181.87
2019-02-18T00:12:23.847Z,181.10
2019-02-18T00:12:55.082Z,185.23
2019-02-18T00:13:26.340Z,201.83
2019-02-18T00:13:57.561Z,182.10
2019-02-18T00:14:28.854Z,188.23
2019-02-18T00:15:00.320Z,177.80
2019-02-18T00:15:31.749Z,171.87
2019-02-18T00:16:03.095Z,167.37
2019-02-18T00:16:34.430Z,175.23
2019-02-18T00:17:05.740Z,166.53
2019-02-18T00:17:37.039Z,171.17
2019-02-18T00:18:08.291Z,176.97
2019-02-18T00:18:42.309Z,167.70
2019-02-18T00:19:14.002Z,164.83
2019-02-18T00:19:45.375Z,165.50
2019-02-18T00:20:16.755Z,163.50
2019-02-18T00:20:47.994Z,174.67
2019-02-18T00:21:19.422Z,173.33
2019-02-18T00:21:50.685Z,177.60
2019-02-18T00:22:22.015Z,177.87
2019-02-18T00:22:53.384Z,176.53
2019-02-18T00:23:24.682Z,179.50
2019-02-18T00:23:56.052Z,177.87
2019-02-18T00:24:27.314Z,189.83
2019-02-18T00:24:58.642Z,193.17
2019-02-18T00:25:29.923Z,197.93
2019-02-18T00:26:01.207Z,193.20
2019-02-18T00:26:32.458Z,187.73
2019-02-18T00:27:03.741Z,187.63
2019-02-18T00:27:35.081Z,200.53
2019-02-18T00:28:06.330Z,201.20
2019-02-18T00:28:37.728Z,194.97
2019-02-18T00:29:09.050Z,191.67
2019-02-18T00:29:40.526Z,203.93
2019-02-18T00:30:11.840Z,197.23
2019-02-18T00:30:43.286Z,192.13
2019-02-18T00:31:14.558Z,188.63
2019-02-18T00:31:45.952Z,192.70
2019-02-18T00:32:17.256Z,192.93
2019-02-18T00:32:48.606Z,182.47
2019-02-18T00:33:19.813Z,175.10
2019-02-18T00:33:51.199Z,178.77
2019-02-18T00:34:22.562Z,172.97
2019-02-18T00:34:54.028Z,181.17
2019-02-18T00:35:25.389Z,165.73
2019-02-18T00:35:56.712Z,155.93
2019-02-18T00:36:28.066Z,155.87
2019-02-18T00:36:59.446Z,157.47
2019-02-18T00:37:30.773Z,173.53
2019-02-18T00:38:02.187Z,178.70
2019-02-18T00:38:33.533Z,189.77
2019-02-18T00:39:04.940Z,202.40
2019-02-18T00:39:37.783Z,196.07
2019-02-18T00:40:09.229Z,203.83
2019-02-18T00:40:40.847Z,201.13
2019-02-18T00:41:12.239Z,199.20
2019-02-18T00:41:43.526Z,189.70
2019-02-18T00:42:14.937Z,202.43
2019-02-18T00:42:46.251Z,213.50
2019-02-18T00:43:17.659Z,204.07
2019-02-18T00:43:48.915Z,211.07
2019-02-18T00:44:20.265Z,220.00
2019-02-18T00:44:51.673Z,225.20
2019-02-18T00:45:23.059Z,253.80
2019-02-18T00:45:54.329Z,270.97
2019-02-18T00:46:25.690Z,278.73
2019-02-18T00:46:57.083Z,292.47
2019-02-18T00:47:28.367Z,300.00
2019-02-18T00:47:59.645Z,311.70
2019-02-18T00:48:30.952Z,301.23
2019-02-18T00:49:02.354Z,312.20
2019-02-18T00:49:33.690Z,304.73
2019-02-18T00:50:07.396Z,287.67
2019-02-18T00:50:38.804Z,297.23
2019-02-18T00:51:10.038Z,273.10
2019-02-18T00:51:41.264Z,272.53
2019-02-18T00:52:12.596Z,251.00
2019-02-18T00:52:44.027Z,221.60
2019-02-18T00:53:15.368Z,218.63
2019-02-18T00:53:46.614Z,206.30
2019-02-18T00:54:17.909Z,209.23
2019-02-18T00:54:49.239Z,214.07
2019-02-18T00:55:20.573Z,190.90
2019-02-18T00:55:51.856Z,190.17
2019-02-18T00:56:23.320Z,183.80
2019-02-18T00:56:54.651Z,181.37
2019-02-18T00:57:25.963Z,174.77
2019-02-18T00:57:57.248Z,156.17
2019-02-18T00:58:28.571Z,150.83
2019-02-18T00:58:59.875Z,139.73
2019-02-18T00:59:31.260Z,139.33
2019-02-18T01:00:07.231Z,122.77
2019-02-18T01:00:38.901Z,125.77
2019-02-18T01:01:10.341Z,115.83
2019-02-18T01:01:42.652Z,118.50
2019-02-18T01:02:14.012Z,116.10
2019-02-18T01:02:46.106Z,113.90
2019-02-18T01:03:17.393Z,117.80
2019-02-18T01:03:48.692Z,117.37
2019-02-18T01:04:20.081Z,112.57
2019-02-18T01:04:51.361Z,107.00
2019-02-18T01:05:22.631Z,108.97
2019-02-18T01:05:53.915Z,103.00
2019-02-18T01:06:25.259Z,97.77
2019-02-18T01:06:56.579Z,102.70
2019-02-18T01:07:34.452Z,99.23
2019-02-18T01:08:01.023Z,97.77
2019-02-18T01:08:32.432Z,91.40
2019-02-18T01:09:04.409Z,90.63
2019-02-18T01:09:35.919Z,86.20
2019-02-18T01:10:10.622Z,93.67
2019-02-18T01:10:41.872Z,92.50
2019-02-18T01:11:13.300Z,84.53
2019-02-18T01:11:44.663Z,83.40
2019-02-18T01:12:15.957Z,83.00
2019-02-18T01:12:47.228Z,84.50
2019-02-18T01:13:18.590Z,81.70
2019-02-18T01:13:49.943Z,79.83
2019-02-18T01:14:21.264Z,79.30
2019-02-18T01:14:52.481Z,76.40
2019-02-18T01:15:23.812Z,78.10
2019-02-18T01:15:55.182Z,74.90
2019-02-18T01:16:26.637Z,67.80
2019-02-18T01:16:58.048Z,69.60
2019-02-18T01:17:29.465Z,66.20
2019-02-18T01:18:00.731Z,59.63
2019-02-18T01:18:32.130Z,66.23
2019-02-18T01:19:03.480Z,70.67
2019-02-18T01:19:34.922Z,71.90
2019-02-18T01:20:10.226Z,64.97
2019-02-18T01:20:41.621Z,64.70
2019-02-18T01:21:13.065Z,63.90
2019-02-18T01:21:44.425Z,68.40
2019-02-18T01:22:15.818Z,65.83
2019-02-18T01:22:47.199Z,67.13
2019-02-18T01:23:18.467Z,68.30
2019-02-18T01:23:49.785Z,64.10
2019-02-18T01:24:21.212Z,61.43
2019-02-18T01:24:52.487Z,61.97
2019-02-18T01:25:23.778Z,61.83
2019-02-18T01:25:55.118Z,67.30
2019-02-18T01:26:26.357Z,61.63
2019-02-18T01:26:57.726Z,64.43
2019-02-18T01:27:29.095Z,62.33
2019-02-18T01:28:00.418Z,67.43
2019-02-18T01:28:31.817Z,68.27
2019-02-18T01:29:03.201Z,64.57
2019-02-18T01:29:34.574Z,66.30
2019-02-18T01:30:11.405Z,68.73
2019-02-18T01:30:42.724Z,72.43
2019-02-18T01:31:14.103Z,70.17
2019-02-18T01:31:45.427Z,78.17
2019-02-18T01:32:16.683Z,75.63
2019-02-18T01:32:48.068Z,69.93
2019-02-18T01:33:19.416Z,70.50
2019-02-18T01:33:51.780Z,70.70
2019-02-18T01:34:23.163Z,72.80
2019-02-18T01:34:54.439Z,71.17
2019-02-18T01:35:25.809Z,73.70
2019-02-18T01:35:57.215Z,75.07
2019-02-18T01:36:28.488Z,74.67
2019-02-18T01:36:59.894Z,82.50
2019-02-18T01:37:31.223Z,77.37
2019-02-18T01:38:02.643Z,74.43
2019-02-18T01:38:34.030Z,77.97
2019-02-18T01:39:05.402Z,81.80
2019-02-18T01:39:36.791Z,80.43
2019-02-18T01:40:12.756Z,76.63
2019-02-18T01:40:44.068Z,73.00
2019-02-18T01:41:15.434Z,81.27
2019-02-18T01:41:46.855Z,86.23
2019-02-18T01:42:18.139Z,82.73
2019-02-18T01:42:49.427Z,79.23
2019-02-18T01:43:20.656Z,84.30
2019-02-18T01:43:52.000Z,85.33
2019-02-18T01:44:23.251Z,84.83
2019-02-18T01:44:54.531Z,78.53
2019-02-18T01:45:25.768Z,81.23
2019-02-18T01:45:57.077Z,86.07
2019-02-18T01:46:28.418Z,84.67
2019-02-18T01:46:59.793Z,84.53
2019-02-18T01:47:31.054Z,84.93
2019-02-18T01:48:02.418Z,79.00
2019-02-18T01:48:33.696Z,81.37
2019-02-18T01:49:05.044Z,88.70
2019-02-18T01:49:36.372Z,84.33
2019-02-18T01:50:12.946Z,90.47
2019-02-18T01:50:44.390Z,86.00
2019-02-18T01:51:15.830Z,82.10
2019-02-18T01:51:47.173Z,83.83
2019-02-18T01:52:18.588Z,80.70
2019-02-18T01:52:50.062Z,85.23
2019-02-18T01:53:21.533Z,78.60
2019-02-18T01:53:53.042Z,82.13
2019-02-18T01:54:24.420Z,81.50
2019-02-18T01:54:55.676Z,80.80
2019-02-18T01:55:26.973Z,81.07
2019-02-18T01:55:58.495Z,80.53
2019-02-18T01:56:29.797Z,76.20
2019-02-18T01:57:01.147Z,78.67
2019-02-18T01:57:32.390Z,78.30
2019-02-18T01:58:03.716Z,77.67
2019-02-18T01:58:35.061Z,78.57
2019-02-18T01:59:07.383Z,75.10
2019-02-18T01:59:38.718Z,69.40
2019-02-18T02:00:13.239Z,78.50
2019-02-18T02:00:44.478Z,73.17
2019-02-18T02:01:15.832Z,77.57
2019-02-18T02:01:47.069Z,76.00
2019-02-18T02:02:18.495Z,79.73
2019-02-18T02:02:49.830Z,82.67
2019-02-18T02:03:21.122Z,87.83
2019-02-18T02:03:52.389Z,90.03
2019-02-18T02:04:23.755Z,95.77
2019-02-18T02:04:55.131Z,91.07
2019-02-18T02:05:26.575Z,93.13
2019-02-18T02:05:57.949Z,95.27
2019-02-18T02:06:29.366Z,96.10
2019-02-18T02:07:00.802Z,96.63
2019-02-18T02:07:32.580Z,96.13
2019-02-18T02:08:04.180Z,91.80
2019-02-18T02:08:35.538Z,90.97
2019-02-18T02:09:08.804Z,91.53
2019-02-18T02:09:40.333Z,89.07
2019-02-18T02:10:14.107Z,85.90
2019-02-18T02:10:45.464Z,87.43
2019-02-18T02:11:16.844Z,87.10
2019-02-18T02:11:48.153Z,93.73
2019-02-18T02:12:19.545Z,89.57
2019-02-18T02:12:52.686Z,85.93
2019-02-18T02:13:27.717Z,101.00
2019-02-18T02:13:58.948Z,91.87
2019-02-18T02:14:30.345Z,78.80
2019-02-18T02:15:03.149Z,89.10
2019-02-18T02:15:34.522Z,85.60
2019-02-18T02:16:07.607Z,88.47
2019-02-18T02:16:38.944Z,81.23
2019-02-18T02:17:10.535Z,87.30
2019-02-18T02:17:41.937Z,83.67
2019-02-18T02:18:13.453Z,88.00
2019-02-18T02:18:44.924Z,84.40
2019-02-18T02:19:16.363Z,82.87
2019-02-18T02:19:47.843Z,77.10
2019-02-18T02:20:19.231Z,83.90
2019-02-18T02:20:50.487Z,85.63
2019-02-18T02:21:21.847Z,87.73
2019-02-18T02:21:53.199Z,85.33
2019-02-18T02:22:24.545Z,83.60
2019-02-18T02:22:55.946Z,85.27
2019-02-18T02:23:27.286Z,91.57
2019-02-18T02:23:58.628Z,91.33
2019-02-18T02:24:29.988Z,92.23
2019-02-18T02:25:01.291Z,90.03
2019-02-18T02:25:32.644Z,95.10
2019-02-18T02:26:03.962Z,92.27
2019-02-18T02:26:35.447Z,97.87
2019-02-18T02:27:06.723Z,94.87
2019-02-18T02:27:39.091Z,91.67
2019-02-18T02:28:10.507Z,91.00
2019-02-18T02:28:41.907Z,87.63
2019-02-18T02:29:13.386Z,90.37
2019-02-18T02:29:44.645Z,91.47
2019-02-18T02:30:16.020Z,85.00
2019-02-18T02:30:47.246Z,90.50
2019-02-18T02:31:18.637Z,93.67
2019-02-18T02:31:49.919Z,90.57
2019-02-18T02:32:21.249Z,88.63
2019-02-18T02:32:53.617Z,84.60
2019-02-18T02:33:25.018Z,82.50
2019-02-18T02:33:56.275Z,96.57
2019-02-18T02:34:27.680Z,109.57
2019-02-18T02:34:59.028Z,102.10
2019-02-18T02:35:31.342Z,97.77
2019-02-18T02:36:02.583Z,96.73
2019-02-18T02:36:33.921Z,94.10
2019-02-18T02:37:05.295Z,98.13
2019-02-18T02:37:36.731Z,92.00
2019-02-18T02:38:08.320Z,99.40
2019-02-18T02:38:39.689Z,93.97
2019-02-18T02:39:11.020Z,99.80
2019-02-18T02:39:42.308Z,94.73
2019-02-18T02:40:13.824Z,97.83
2019-02-18T02:40:45.243Z,90.00
2019-02-18T02:41:16.559Z,88.03
2019-02-18T02:41:47.981Z,91.83
2019-02-18T02:42:19.278Z,89.93
2019-02-18T02:42:50.644Z,90.77
2019-02-18T02:43:21.961Z,93.73
2019-02-18T02:43:54.402Z,94.37
2019-02-18T02:44:25.732Z,97.53
2019-02-18T02:44:57.070Z,90.83
2019-02-18T02:45:28.376Z,97.53
2019-02-18T02:45:59.658Z,96.93
2019-02-18T02:46:32.044Z,97.50
2019-02-18T02:47:03.341Z,91.33
2019-02-18T02:47:34.725Z,92.40
2019-02-18T02:48:06.117Z,90.20
2019-02-18T02:48:37.475Z,89.73
2019-02-18T02:49:08.736Z,92.20
2019-02-18T02:49:40.256Z,93.03
2019-02-18T02:50:11.588Z,105.67
2019-02-18T02:50:42.873Z,96.03
2019-02-18T02:51:14.174Z,90.40
2019-02-18T02:51:45.539Z,88.57
2019-02-18T02:52:16.867Z,88.03
2019-02-18T02:52:48.169Z,86.33
2019-02-18T02:54:12.827Z,95.27
2019-02-18T02:54:45.611Z,93.73
2019-02-18T02:55:16.996Z,99.40
2019-02-18T02:55:48.321Z,98.50
2019-02-18T02:56:19.852Z,110.53
2019-02-18T02:56:51.251Z,113.03
2019-02-18T02:57:22.493Z,102.97
2019-02-18T02:57:53.796Z,107.97
2019-02-18T02:58:25.458Z,103.37
2019-02-18T02:58:56.808Z,105.63
2019-02-18T02:59:28.290Z,103.53
2019-02-18T02:59:59.662Z,121.27
2019-02-18T03:00:31.353Z,122.27
2019-02-18T03:01:02.762Z,110.73
2019-02-18T03:01:34.516Z,115.90
2019-02-18T03:02:07.845Z,113.23
2019-02-18T03:02:39.228Z,115.90
2019-02-18T03:03:10.667Z,120.60
2019-02-18T03:03:42.088Z,106.80
2019-02-18T03:04:13.473Z,112.33
2019-02-18T03:04:45.050Z,109.53
2019-02-18T03:05:16.536Z,106.77
2019-02-18T03:05:47.954Z,100.07
2019-02-18T03:06:19.410Z,107.20
2019-02-18T03:06:50.848Z,92.93
2019-02-18T03:07:22.067Z,91.27
2019-02-18T03:07:53.422Z,87.73
2019-02-18T03:08:24.951Z,94.50
2019-02-18T03:08:56.496Z,101.93
2019-02-18T03:09:27.744Z,92.60
2019-02-18T03:09:59.162Z,106.73
2019-02-18T03:10:30.479Z,99.97
2019-02-18T03:11:01.931Z,108.90
2019-02-18T03:11:33.276Z,99.33
2019-02-18T03:12:04.677Z,109.10
2019-02-18T03:12:36.018Z,112.50
2019-02-18T03:13:07.339Z,105.93
2019-02-18T03:13:38.563Z,113.07
2019-02-18T03:14:09.933Z,112.63
2019-02-18T03:14:41.150Z,105.37
2019-02-18T03:15:14.871Z,112.90
2019-02-18T03:15:46.206Z,108.37
2019-02-18T03:16:17.675Z,108.53
2019-02-18T03:16:49.170Z,107.10
2019-02-18T03:17:20.629Z,105.67
2019-02-18T03:17:52.068Z,109.73
2019-02-18T03:18:23.431Z,120.27
2019-02-18T03:18:54.787Z,116.10
2019-02-18T03:19:26.234Z,117.13
2019-02-18T03:19:57.681Z,131.60
2019-02-18T03:20:29.011Z,125.53
2019-02-18T03:21:00.430Z,106.00
2019-02-18T03:21:31.676Z,106.60
2019-02-18T03:22:03.028Z,109.03
2019-02-18T03:22:34.298Z,111.60
2019-02-18T03:23:05.580Z,102.63
2019-02-18T03:23:36.936Z,94.97
2019-02-18T03:24:08.358Z,97.30
2019-02-18T03:25:01.878Z,97.77
2019-02-18T03:25:33.229Z,82.90
2019-02-18T03:26:04.587Z,98.73
2019-02-18T03:26:35.875Z,93.83
2019-02-18T03:27:07.293Z,85.53
2019-02-18T03:27:38.669Z,96.07
2019-02-18T03:28:21.346Z,99.90
2019-02-18T03:29:07.425Z,110.03
2019-02-18T03:29:53.405Z,99.10
2019-02-18T03:30:54.096Z,102.80
2019-02-18T03:31:26.626Z,89.97
2019-02-18T03:31:58.040Z,99.23
2019-02-18T03:32:29.327Z,101.60
2019-02-18T03:33:00.703Z,99.70
2019-02-18T03:33:49.484Z,106.97
2019-02-18T03:34:26.377Z,109.53
2019-02-18T03:34:57.737Z,101.80
2019-02-18T03:35:29.064Z,105.37
2019-02-18T03:36:00.446Z,103.97
2019-02-18T03:36:31.696Z,94.80
2019-02-18T03:37:02.992Z,112.13
2019-02-18T03:37:34.273Z,131.37
2019-02-18T03:38:05.648Z,127.00
2019-02-18T03:38:36.988Z,112.37
2019-02-18T03:39:08.274Z,110.03
2019-02-18T03:39:39.635Z,106.03
2019-02-18T03:40:10.950Z,136.27
2019-02-18T03:40:42.216Z,106.63
2019-02-18T03:41:13.536Z,100.87
2019-02-18T03:41:44.907Z,123.80
2019-02-18T03:42:16.298Z,103.47
2019-02-18T03:42:47.660Z,109.40
2019-02-18T03:43:19.012Z,113.33
2019-02-18T03:43:50.402Z,117.70
2019-02-18T03:44:21.825Z,113.93
2019-02-18T03:44:53.140Z,123.73
2019-02-18T03:45:24.509Z,145.77
2019-02-18T03:45:55.914Z,133.43
2019-02-18T03:46:27.281Z,158.73
2019-02-18T03:46:58.682Z,180.30
2019-02-18T03:47:30.035Z,138.10
2019-02-18T03:48:01.295Z,154.70
2019-02-18T03:48:32.582Z,176.33
2019-02-18T03:49:03.920Z,155.63
2019-02-18T03:49:35.159Z,159.90
2019-02-18T03:50:06.441Z,158.43
2019-02-18T03:50:37.689Z,156.00
2019-02-18T03:51:08.944Z,157.20
2019-02-18T03:51:40.526Z,173.20
2019-02-18T03:52:11.840Z,134.40
2019-02-18T03:52:44.208Z,138.50
2019-02-18T03:53:15.574Z,151.43
2019-02-18T03:53:46.856Z,137.10
2019-02-18T03:54:18.202Z,121.40
2019-02-18T03:54:49.724Z,128.73
2019-02-18T03:55:21.223Z,125.67
2019-02-18T03:55:52.621Z,118.70
2019-02-18T03:56:24.059Z,117.77
2019-02-18T03:56:55.378Z,106.97
2019-02-18T03:57:26.732Z,110.33
2019-02-18T03:57:58.149Z,98.37
2019-02-18T03:58:29.426Z,102.13
2019-02-18T03:59:00.735Z,100.93
2019-02-18T03:59:31.993Z,86.57
2019-02-18T04:00:07.987Z,84.80
2019-02-18T04:00:39.231Z,86.40
2019-02-18T04:01:10.879Z,89.50
2019-02-18T04:01:42.127Z,103.47
2019-02-18T04:02:13.431Z,82.43
2019-02-18T04:02:44.741Z,88.03
2019-02-18T04:03:16.809Z,86.70
2019-02-18T04:03:48.049Z,86.77
2019-02-18T04:04:19.331Z,88.57
2019-02-18T04:04:50.587Z,75.73
2019-02-18T04:05:22.035Z,78.60
2019-02-18T04:05:53.423Z,75.17
2019-02-18T04:06:24.721Z,98.57
2019-02-18T04:06:56.201Z,81.73
2019-02-18T04:07:27.567Z,82.63
2019-02-18T04:07:58.973Z,99.60
2019-02-18T04:08:30.196Z,94.47
2019-02-18T04:09:04.168Z,94.93
2019-02-18T04:09:36.531Z,84.90
2019-02-18T04:10:09.706Z,90.47
2019-02-18T04:10:41.065Z,117.50
2019-02-18T04:11:12.418Z,168.23
2019-02-18T04:11:44.046Z,130.30
2019-02-18T04:12:15.346Z,151.00
2019-02-18T04:12:46.612Z,154.37
2019-02-18T04:13:17.908Z,132.77
2019-02-18T04:13:49.344Z,135.93
2019-02-18T04:14:20.795Z,135.10
2019-02-18T04:14:52.050Z,116.60
2019-02-18T04:15:23.370Z,117.13
2019-02-18T04:15:54.612Z,104.90
2019-02-18T04:16:25.986Z,107.60
2019-02-18T04:16:57.389Z,97.00
2019-02-18T04:17:28.678Z,97.57
2019-02-18T04:18:00.010Z,123.97
2019-02-18T04:18:31.304Z,140.63
2019-02-18T04:19:03.645Z,129.80
2019-02-18T04:19:35.014Z,172.47
2019-02-18T04:20:06.361Z,171.30
2019-02-18T04:20:37.589Z,163.43
2019-02-18T04:21:09.098Z,169.77
2019-02-18T04:21:40.409Z,177.13
2019-02-18T04:22:11.724Z,177.80
2019-02-18T04:22:43.028Z,193.83
2019-02-18T04:23:14.394Z,182.83
2019-02-18T04:23:45.630Z,186.30
2019-02-18T04:24:17.973Z,177.90
2019-02-18T04:24:49.320Z,162.77
2019-02-18T04:25:20.721Z,157.57
2019-02-18T04:25:52.045Z,167.27
2019-02-18T04:26:23.341Z,156.37
2019-02-18T04:26:54.682Z,146.60
2019-02-18T04:27:25.995Z,139.00
2019-02-18T04:27:57.341Z,123.23
2019-02-18T04:28:28.683Z,117.27
2019-02-18T04:29:00.053Z,121.40
2019-02-18T04:29:31.456Z,130.70
2019-02-18T04:30:06.168Z,120.40
2019-02-18T04:30:37.456Z,112.03
2019-02-18T04:31:08.796Z,117.20
2019-02-18T04:31:40.180Z,123.87
2019-02-18T04:32:11.510Z,113.83
2019-02-18T04:32:42.784Z,114.00
2019-02-18T04:33:14.080Z,117.57
2019-02-18T04:33:45.416Z,125.20
2019-02-18T04:34:16.818Z,125.40
2019-02-18T04:34:48.084Z,138.03
2019-02-18T04:35:19.418Z,141.53
2019-02-18T04:35:50.770Z,141.77
2019-02-18T04:36:21.997Z,121.90
2019-02-18T04:36:53.268Z,144.73
2019-02-18T04:37:24.535Z,129.93
2019-02-18T04:37:55.894Z,129.10
2019-02-18T04:38:27.193Z,125.07
2019-02-18T04:38:58.529Z,140.13
2019-02-18T04:39:29.839Z,129.20
2019-02-18T04:40:01.208Z,123.40
2019-02-18T04:40:32.640Z,147.93
2019-02-18T04:41:04.018Z,115.30
2019-02-18T04:41:35.376Z,116.43
2019-02-18T04:42:06.696Z,133.27
2019-02-18T04:42:37.986Z,118.90
2019-02-18T04:43:09.301Z,107.30
2019-02-18T04:43:42.140Z,87.57
2019-02-18T04:44:13.653Z,93.07
2019-02-18T04:44:44.924Z,86.43
2019-02-18T04:45:16.461Z,84.30
2019-02-18T04:45:47.808Z,99.33
2019-02-18T04:46:19.135Z,83.53
2019-02-18T04:46:50.448Z,84.60
2019-02-18T04:47:21.946Z,84.57
2019-02-18T04:47:53.278Z,83.50
2019-02-18T04:48:25.654Z,84.03
2019-02-18T04:48:57.004Z,77.73
2019-02-18T04:49:28.376Z,78.30
2019-02-18T04:49:59.614Z,86.40
2019-02-18T04:50:31.041Z,85.37
2019-02-18T04:51:02.402Z,98.20
2019-02-18T04:51:33.697Z,99.83
2019-02-18T04:52:04.933Z,115.63
2019-02-18T04:52:36.255Z,100.33
2019-02-18T04:53:07.469Z,99.93
2019-02-18T04:53:38.791Z,105.67
2019-02-18T04:54:10.007Z,113.13
2019-02-18T04:54:41.321Z,103.20
2019-02-18T04:55:12.682Z,108.87
2019-02-18T04:55:44.125Z,109.33
2019-02-18T04:56:15.470Z,119.30
2019-02-18T04:56:46.902Z,116.27
2019-02-18T04:57:18.367Z,122.77
2019-02-18T04:57:49.813Z,140.00
2019-02-18T04:58:21.164Z,125.70
2019-02-18T04:58:52.473Z,103.90
2019-02-18T04:59:23.859Z,103.77
2019-02-18T04:59:55.248Z,90.33
2019-02-18T05:00:26.658Z,87.67
2019-02-18T05:00:58.034Z,90.83
2019-02-18T05:01:29.324Z,87.43
2019-02-18T05:02:00.685Z,85.47
2019-02-18T05:02:32.046Z,84.90
2019-02-18T05:03:03.253Z,78.67
2019-02-18T05:03:34.576Z,83.47
2019-02-18T05:04:05.798Z,82.00
2019-02-18T05:04:37.104Z,78.23
2019-02-18T05:05:09.273Z,85.13
2019-02-18T05:05:40.930Z,79.83
2019-02-18T05:06:12.324Z,100.70
2019-02-18T05:06:43.716Z,86.70
2019-02-18T05:07:15.043Z,96.73
2019-02-18T05:07:46.413Z,102.13
2019-02-18T05:08:17.662Z,89.37
2019-02-18T05:08:48.955Z,99.10
2019-02-18T05:09:20.299Z,96.87
2019-02-18T05:09:51.662Z,107.17
2019-02-18T05:10:22.999Z,93.47
2019-02-18T05:10:54.273Z,112.57
2019-02-18T05:11:25.546Z,96.77
2019-02-18T05:11:56.840Z,129.73
2019-02-18T05:12:28.107Z,136.33
2019-02-18T05:12:59.391Z,135.57
2019-02-18T05:13:30.788Z,96.50
2019-02-18T05:14:02.088Z,93.90
2019-02-18T05:14:33.435Z,104.17
2019-02-18T05:15:06.700Z,110.80
2019-02-18T05:15:40.195Z,81.23
2019-02-18T05:16:11.352Z,86.87
2019-02-18T05:16:42.679Z,78.90
2019-02-18T05:17:13.988Z,74.77
2019-02-18T05:17:45.492Z,75.50
2019-02-18T05:18:16.749Z,75.53
2019-02-18T05:18:48.125Z,69.93
2019-02-18T05:19:19.448Z,65.50
2019-02-18T05:19:50.840Z,67.83
2019-02-18T05:20:22.069Z,67.70
2019-02-18T05:20:53.416Z,58.10
2019-02-18T05:21:24.906Z,64.63
2019-02-18T05:21:56.154Z,60.37
2019-02-18T05:22:27.386Z,88.60
2019-02-18T05:22:58.646Z,68.07
2019-02-18T05:23:29.910Z,75.50
2019-02-18T05:24:01.259Z,68.50
2019-02-18T05:24:32.506Z,76.73
2019-02-18T05:25:07.213Z,73.77
2019-02-18T05:25:38.562Z,77.10
2019-02-18T05:26:09.859Z,81.77
2019-02-18T05:26:41.315Z,90.57
2019-02-18T05:27:12.717Z,92.47
2019-02-18T05:27:44.107Z,97.00
2019-02-18T05:28:15.431Z,88.23
2019-02-18T05:28:46.823Z,95.07
2019-02-18T05:29:18.071Z,89.57
2019-02-18T05:29:49.458Z,127.27
2019-02-18T05:30:20.761Z,118.37
2019-02-18T05:30:52.066Z,104.13
2019-02-18T05:31:23.444Z,133.60
2019-02-18T05:31:54.756Z,77.60
2019-02-18T05:32:25.962Z,79.37
2019-02-18T05:32:57.358Z,81.53
2019-02-18T05:33:28.782Z,71.30
2019-02-18T05:34:00.228Z,80.23
2019-02-18T05:34:31.543Z,70.70
2019-02-18T05:35:03.052Z,64.77
2019-02-18T05:35:34.298Z,65.07
2019-02-18T05:36:05.630Z,75.80
2019-02-18T05:36:36.882Z,79.77
2019-02-18T05:37:08.255Z,86.60
2019-02-18T05:37:39.675Z,100.60
2019-02-18T05:38:11.236Z,102.50
2019-02-18T05:38:42.621Z,113.93
2019-02-18T05:39:17.976Z,104.97
2019-02-18T05:39:47.157Z,102.77
2019-02-18T05:40:18.477Z,103.87
2019-02-18T05:40:49.950Z,101.80
2019-02-18T05:41:21.290Z,124.37
2019-02-18T05:41:52.557Z,93.07
2019-02-18T05:42:23.900Z,101.50
2019-02-18T05:42:55.289Z,97.87
2019-02-18T05:43:26.658Z,75.30
2019-02-18T05:43:58.025Z,79.17
2019-02-18T05:44:29.375Z,78.77
2019-02-18T05:45:00.636Z,75.83
2019-02-18T05:45:31.976Z,78.47
2019-02-18T05:46:03.250Z,94.53
2019-02-18T05:46:34.547Z,94.70
2019-02-18T05:47:05.932Z,93.90
2019-02-18T05:47:37.349Z,90.17
2019-02-18T05:48:08.712Z,109.87
2019-02-18T05:48:40.109Z,88.97
2019-02-18T05:49:11.607Z,82.77
2019-02-18T05:49:42.950Z,85.30
2019-02-18T05:50:14.273Z,82.47
2019-02-18T05:50:45.597Z,73.80
2019-02-18T05:51:16.848Z,62.73
2019-02-18T05:51:48.277Z,73.23
2019-02-18T05:52:19.613Z,86.73
2019-02-18T05:52:50.885Z,82.50
2019-02-18T05:53:22.141Z,74.43
2019-02-18T05:53:53.437Z,78.93
2019-02-18T05:54:24.645Z,65.07
2019-02-18T05:54:55.970Z,65.80
2019-02-18T05:55:27.332Z,62.20
2019-02-18T05:55:58.688Z,68.93
2019-02-18T05:56:30.131Z,66.67
2019-02-18T05:57:02.611Z,95.47
2019-02-18T05:57:33.984Z,89.90
2019-02-18T05:58:05.307Z,83.07
2019-02-18T05:58:36.687Z,102.83
2019-02-18T05:59:08.095Z,97.43
2019-02-18T05:59:39.339Z,97.47
2019-02-18T06:00:11.536Z,106.83
2019-02-18T06:00:42.943Z,111.07
2019-02-18T06:01:14.915Z,99.57
2019-02-18T06:01:46.196Z,103.67
2019-02-18T06:02:19.483Z,121.67
2019-02-18T06:02:50.732Z,111.97
2019-02-18T06:03:22.096Z,120.80
2019-02-18T06:03:53.347Z,108.43
2019-02-18T06:04:24.700Z,114.20
2019-02-18T06:04:55.957Z,118.07
2019-02-18T06:05:28.292Z,122.23
2019-02-18T06:05:59.509Z,103.70
2019-02-18T06:06:30.875Z,91.87
2019-02-18T06:07:02.089Z,72.83
2019-02-18T06:07:33.495Z,86.47
2019-02-18T06:08:04.806Z,82.57
2019-02-18T06:08:36.192Z,84.20
2019-02-18T06:09:07.459Z,71.43
2019-02-18T06:09:38.820Z,80.70
2019-02-18T06:10:10.380Z,70.47
2019-02-18T06:10:41.771Z,74.30
2019-02-18T06:11:13.233Z,67.00
2019-02-18T06:11:44.628Z,58.70
2019-02-18T06:12:16.064Z,65.03
2019-02-18T06:12:47.509Z,84.30
2019-02-18T06:13:18.860Z,76.97
2019-02-18T06:13:50.182Z,97.33
2019-02-18T06:14:21.515Z,87.57
2019-02-18T06:14:52.848Z,90.03
2019-02-18T06:15:24.143Z,83.77
2019-02-18T06:15:55.485Z,87.97
2019-02-18T06:16:26.878Z,80.67
2019-02-18T06:16:58.161Z,84.90
2019-02-18T06:17:29.525Z,86.80
2019-02-18T06:18:00.777Z,87.87
2019-02-18T06:18:32.148Z,105.80
2019-02-18T06:19:03.372Z,106.83
2019-02-18T06:19:35.670Z,93.00
2019-02-18T06:20:08.048Z,97.90
2019-02-18T06:20:39.423Z,103.83
2019-02-18T06:21:10.722Z,100.13
2019-02-18T06:21:42.046Z,74.00
2019-02-18T06:22:13.342Z,72.57
2019-02-18T06:22:44.581Z,50.40
2019-02-18T06:23:15.890Z,54.73
2019-02-18T06:23:47.165Z,60.33
2019-02-18T06:24:18.472Z,50.03
2019-02-18T06:24:49.799Z,49.60
2019-02-18T06:25:21.264Z,49.80
2019-02-18T06:25:52.576Z,49.67
2019-02-18T06:26:23.906Z,55.70
2019-02-18T06:26:55.233Z,53.30
2019-02-18T06:27:26.551Z,55.93
2019-02-18T06:27:57.866Z,55.07
2019-02-18T06:28:29.299Z,51.90
2019-02-18T06:29:00.615Z,52.83
2019-02-18T06:29:31.983Z,55.27
2019-02-18T06:30:06.564Z,58.63
2019-02-18T06:30:37.954Z,55.30
2019-02-18T06:31:09.251Z,72.97
2019-02-18T06:31:40.718Z,63.13
2019-02-18T06:32:12.033Z,61.73
2019-02-18T06:32:43.437Z,66.80
2019-02-18T06:33:14.713Z,65.50
2019-02-18T06:33:46.010Z,64.57
2019-02-18T06:34:17.244Z,62.60
2019-02-18T06:34:48.598Z,56.27
2019-02-18T06:35:19.820Z,64.53
2019-02-18T06:35:51.144Z,60.83
2019-02-18T06:36:23.952Z,58.37
2019-02-18T06:36:55.362Z,56.83
2019-02-18T06:37:26.586Z,67.10
2019-02-18T06:37:58.184Z,69.80
2019-02-18T06:38:29.419Z,60.17
2019-02-18T06:39:00.735Z,62.80
2019-02-18T06:39:40.861Z,55.70
2019-02-18T06:40:07.490Z,58.57
2019-02-18T06:40:38.869Z,56.97
2019-02-18T06:41:10.158Z,56.97
2019-02-18T06:41:41.406Z,55.27
2019-02-18T06:42:12.667Z,56.03
2019-02-18T06:42:44.019Z,66.90
2019-02-18T06:43:15.399Z,60.30